sensor_id;sensor_type;location;lat;lon;timestamp;P1;durP1;ratioP1;P2;durP2;ratioP2
6626;SDS011;3349;49.830;8.748;2023-09-07T00:02:25;6.22;;;5.57;;
6626;SDS011;3349;49.830;8.748;2023-09-07T00:04:52;8.23;;;6.00;;
6626;SDS011;3349;49.830;8.748;2023-09-07T00:07:19;7.40;;;5.68;;
6626;SDS011;3349;49.830;8.748;2023-09-07T00:09:45;6.93;;;5.35;;
6626;SDS011;3349;49.830;8.748;2023-09-07T00:12:12;6.40;;;5.60;;
6626;SDS011;3349;49.830;8.748;2023-09-07T00:14:39;6.50;;;5.07;;
6626;SDS011;3349;49.830;8.748;2023-09-07T00:17:07;9.43;;;5.95;;
6626;SDS011;3349;49.830;8.748;2023-09-07T00:19:33;7.05;;;5.65;;
6626;SDS011;3349;49.830;8.748;2023-09-07T00:22:01;9.52;;;5.65;;
6626;SDS011;3349;49.830;8.748;2023-09-07T00:24:29;8.65;;;5.78;;
6626;SDS011;3349;49.830;8.748;2023-09-07T00:26:56;6.55;;;5.40;;
6626;SDS011;3349;49.830;8.748;2023-09-07T00:29:23;6.97;;;5.72;;
6626;SDS011;3349;49.830;8.748;2023-09-07T00:31:49;5.68;;;5.15;;
6626;SDS011;3349;49.830;8.748;2023-09-07T00:34:18;7.82;;;6.15;;
6626;SDS011;3349;49.830;8.748;2023-09-07T00:36:44;8.02;;;5.70;;
6626;SDS011;3349;49.830;8.748;2023-09-07T00:39:11;6.25;;;5.40;;
6626;SDS011;3349;49.830;8.748;2023-09-07T00:41:38;6.47;;;5.65;;
6626;SDS011;3349;49.830;8.748;2023-09-07T00:44:04;6.53;;;5.28;;
6626;SDS011;3349;49.830;8.748;2023-09-07T00:46:31;5.97;;;5.38;;
6626;SDS011;3349;49.830;8.748;2023-09-07T00:48:58;8.35;;;5.65;;
6626;SDS011;3349;49.830;8.748;2023-09-07T00:51:26;6.00;;;5.40;;
6626;SDS011;3349;49.830;8.748;2023-09-07T00:53:53;6.15;;;5.43;;
6626;SDS011;3349;49.830;8.748;2023-09-07T00:56:20;6.40;;;5.78;;
6626;SDS011;3349;49.830;8.748;2023-09-07T00:58:46;9.32;;;5.53;;
6626;SDS011;3349;49.830;8.748;2023-09-07T01:01:14;8.70;;;5.25;;
6626;SDS011;3349;49.830;8.748;2023-09-07T01:03:40;7.70;;;5.82;;
6626;SDS011;3349;49.830;8.748;2023-09-07T01:06:09;10.95;;;6.10;;
6626;SDS011;3349;49.830;8.748;2023-09-07T01:08:44;10.95;;;5.47;;
6626;SDS011;3349;49.830;8.748;2023-09-07T01:11:12;6.82;;;5.45;;
6626;SDS011;3349;49.830;8.748;2023-09-07T01:13:39;9.00;;;5.30;;
6626;SDS011;3349;49.830;8.748;2023-09-07T01:16:05;5.85;;;5.25;;
6626;SDS011;3349;49.830;8.748;2023-09-07T01:18:33;5.63;;;5.00;;
6626;SDS011;3349;49.830;8.748;2023-09-07T01:21:03;10.70;;;5.20;;
6626;SDS011;3349;49.830;8.748;2023-09-07T01:23:32;8.85;;;5.28;;
6626;SDS011;3349;49.830;8.748;2023-09-07T01:26:00;7.45;;;5.45;;
6626;SDS011;3349;49.830;8.748;2023-09-07T01:28:26;6.00;;;5.15;;
6626;SDS011;3349;49.830;8.748;2023-09-07T01:30:53;7.00;;;5.05;;
6626;SDS011;3349;49.830;8.748;2023-09-07T01:33:20;7.18;;;5.28;;
6626;SDS011;3349;49.830;8.748;2023-09-07T01:35:46;7.10;;;5.15;;
6626;SDS011;3349;49.830;8.748;2023-09-07T01:38:13;6.75;;;5.38;;
6626;SDS011;3349;49.830;8.748;2023-09-07T01:40:41;7.47;;;5.75;;
6626;SDS011;3349;49.830;8.748;2023-09-07T01:43:08;9.18;;;5.57;;
6626;SDS011;3349;49.830;8.748;2023-09-07T01:45:35;6.57;;;5.53;;
6626;SDS011;3349;49.830;8.748;2023-09-07T01:48:01;7.03;;;5.35;;
6626;SDS011;3349;49.830;8.748;2023-09-07T01:50:28;6.22;;;5.63;;
6626;SDS011;3349;49.830;8.748;2023-09-07T01:52:55;8.18;;;5.43;;
6626;SDS011;3349;49.830;8.748;2023-09-07T01:55:22;8.25;;;5.18;;
6626;SDS011;3349;49.830;8.748;2023-09-07T01:57:50;7.75;;;5.30;;
6626;SDS011;3349;49.830;8.748;2023-09-07T02:00:16;7.22;;;5.70;;
6626;SDS011;3349;49.830;8.748;2023-09-07T02:02:43;6.90;;;5.63;;
6626;SDS011;3349;49.830;8.748;2023-09-07T02:05:10;8.25;;;5.60;;
6626;SDS011;3349;49.830;8.748;2023-09-07T02:07:37;6.63;;;5.75;;
6626;SDS011;3349;49.830;8.748;2023-09-07T02:10:04;8.23;;;5.40;;
6626;SDS011;3349;49.830;8.748;2023-09-07T02:12:32;7.38;;;6.03;;
6626;SDS011;3349;49.830;8.748;2023-09-07T02:15:01;7.45;;;5.53;;
6626;SDS011;3349;49.830;8.748;2023-09-07T02:17:29;10.25;;;5.28;;
6626;SDS011;3349;49.830;8.748;2023-09-07T02:19:57;5.45;;;4.80;;
6626;SDS011;3349;49.830;8.748;2023-09-07T02:22:23;11.85;;;5.72;;
6626;SDS011;3349;49.830;8.748;2023-09-07T02:24:50;5.97;;;5.07;;
6626;SDS011;3349;49.830;8.748;2023-09-07T02:27:17;5.95;;;5.13;;
6626;SDS011;3349;49.830;8.748;2023-09-07T02:29:44;9.77;;;5.60;;
6626;SDS011;3349;49.830;8.748;2023-09-07T02:32:12;9.77;;;5.88;;
6626;SDS011;3349;49.830;8.748;2023-09-07T02:34:38;7.20;;;5.43;;
6626;SDS011;3349;49.830;8.748;2023-09-07T02:37:05;5.72;;;5.13;;
6626;SDS011;3349;49.830;8.748;2023-09-07T02:39:31;6.93;;;5.60;;
6626;SDS011;3349;49.830;8.748;2023-09-07T02:41:58;6.00;;;5.40;;
6626;SDS011;3349;49.830;8.748;2023-09-07T02:44:25;6.57;;;5.13;;
6626;SDS011;3349;49.830;8.748;2023-09-07T02:46:52;10.10;;;5.45;;
6626;SDS011;3349;49.830;8.748;2023-09-07T02:49:20;8.75;;;5.57;;
6626;SDS011;3349;49.830;8.748;2023-09-07T02:51:47;6.72;;;5.68;;
6626;SDS011;3349;49.830;8.748;2023-09-07T02:54:13;11.32;;;5.10;;
6626;SDS011;3349;49.830;8.748;2023-09-07T02:56:40;8.32;;;5.63;;
6626;SDS011;3349;49.830;8.748;2023-09-07T02:59:07;5.75;;;5.07;;
6626;SDS011;3349;49.830;8.748;2023-09-07T03:01:33;7.63;;;5.38;;
6626;SDS011;3349;49.830;8.748;2023-09-07T03:04:00;8.38;;;5.18;;
6626;SDS011;3349;49.830;8.748;2023-09-07T03:06:30;6.68;;;5.10;;
6626;SDS011;3349;49.830;8.748;2023-09-07T03:08:56;6.50;;;5.47;;
6626;SDS011;3349;49.830;8.748;2023-09-07T03:11:23;6.20;;;5.13;;
6626;SDS011;3349;49.830;8.748;2023-09-07T03:13:50;9.80;;;5.40;;
6626;SDS011;3349;49.830;8.748;2023-09-07T03:16:17;6.25;;;4.85;;
6626;SDS011;3349;49.830;8.748;2023-09-07T03:18:44;9.52;;;5.63;;
6626;SDS011;3349;49.830;8.748;2023-09-07T03:21:10;7.95;;;5.70;;
6626;SDS011;3349;49.830;8.748;2023-09-07T03:23:39;9.18;;;5.63;;
6626;SDS011;3349;49.830;8.748;2023-09-07T03:26:09;5.95;;;5.35;;
6626;SDS011;3349;49.830;8.748;2023-09-07T03:28:36;7.97;;;5.60;;
6626;SDS011;3349;49.830;8.748;2023-09-07T03:31:02;9.30;;;6.03;;
6626;SDS011;3349;49.830;8.748;2023-09-07T03:33:29;5.82;;;5.07;;
6626;SDS011;3349;49.830;8.748;2023-09-07T03:35:56;6.95;;;4.88;;
6626;SDS011;3349;49.830;8.748;2023-09-07T03:38:24;10.88;;;6.35;;
6626;SDS011;3349;49.830;8.748;2023-09-07T03:40:52;9.20;;;6.10;;
6626;SDS011;3349;49.830;8.748;2023-09-07T03:43:19;7.07;;;6.10;;
6626;SDS011;3349;49.830;8.748;2023-09-07T03:45:45;10.77;;;7.00;;
6626;SDS011;3349;49.830;8.748;2023-09-07T03:48:12;9.75;;;7.32;;
6626;SDS011;3349;49.830;8.748;2023-09-07T03:50:39;9.60;;;6.93;;
6626;SDS011;3349;49.830;8.748;2023-09-07T03:53:05;7.35;;;6.65;;
6626;SDS011;3349;49.830;8.748;2023-09-07T03:55:39;10.00;;;6.93;;
6626;SDS011;3349;49.830;8.748;2023-09-07T03:58:08;8.50;;;6.35;;
6626;SDS011;3349;49.830;8.748;2023-09-07T04:00:37;8.55;;;6.90;;
6626;SDS011;3349;49.830;8.748;2023-09-07T04:03:04;7.45;;;6.65;;
6626;SDS011;3349;49.830;8.748;2023-09-07T04:05:31;8.70;;;5.97;;
6626;SDS011;3349;49.830;8.748;2023-09-07T04:07:58;10.13;;;6.35;;
6626;SDS011;3349;49.830;8.748;2023-09-07T04:10:25;7.28;;;5.88;;
6626;SDS011;3349;49.830;8.748;2023-09-07T04:12:52;7.15;;;6.45;;
6626;SDS011;3349;49.830;8.748;2023-09-07T04:15:20;10.30;;;6.50;;
6626;SDS011;3349;49.830;8.748;2023-09-07T04:17:47;7.60;;;6.80;;
6626;SDS011;3349;49.830;8.748;2023-09-07T04:20:16;8.80;;;6.88;;
6626;SDS011;3349;49.830;8.748;2023-09-07T04:22:43;7.13;;;6.43;;
6626;SDS011;3349;49.830;8.748;2023-09-07T04:25:09;8.32;;;7.15;;
6626;SDS011;3349;49.830;8.748;2023-09-07T04:27:36;7.90;;;6.90;;
6626;SDS011;3349;49.830;8.748;2023-09-07T04:30:03;12.43;;;7.38;;
6626;SDS011;3349;49.830;8.748;2023-09-07T04:32:31;8.98;;;6.95;;
6626;SDS011;3349;49.830;8.748;2023-09-07T04:34:58;9.40;;;7.78;;
6626;SDS011;3349;49.830;8.748;2023-09-07T04:37:26;9.65;;;7.45;;
6626;SDS011;3349;49.830;8.748;2023-09-07T04:39:53;8.07;;;7.18;;
6626;SDS011;3349;49.830;8.748;2023-09-07T04:42:20;9.30;;;7.28;;
6626;SDS011;3349;49.830;8.748;2023-09-07T04:44:47;9.75;;;7.88;;
6626;SDS011;3349;49.830;8.748;2023-09-07T04:47:14;8.55;;;7.35;;
6626;SDS011;3349;49.830;8.748;2023-09-07T04:49:42;9.38;;;6.85;;
6626;SDS011;3349;49.830;8.748;2023-09-07T04:52:14;8.65;;;7.40;;
6626;SDS011;3349;49.830;8.748;2023-09-07T04:54:41;8.07;;;7.25;;
6626;SDS011;3349;49.830;8.748;2023-09-07T04:57:09;9.45;;;7.10;;
6626;SDS011;3349;49.830;8.748;2023-09-07T04:59:35;10.93;;;7.15;;
6626;SDS011;3349;49.830;8.748;2023-09-07T05:02:02;9.88;;;7.20;;
6626;SDS011;3349;49.830;8.748;2023-09-07T05:04:29;10.07;;;7.13;;
6626;SDS011;3349;49.830;8.748;2023-09-07T05:06:57;9.20;;;7.03;;
6626;SDS011;3349;49.830;8.748;2023-09-07T05:09:24;10.45;;;7.60;;
6626;SDS011;3349;49.830;8.748;2023-09-07T05:11:53;10.00;;;7.50;;
6626;SDS011;3349;49.830;8.748;2023-09-07T05:14:19;9.65;;;8.32;;
6626;SDS011;3349;49.830;8.748;2023-09-07T05:16:46;10.95;;;8.85;;
6626;SDS011;3349;49.830;8.748;2023-09-07T05:19:13;9.75;;;8.35;;
6626;SDS011;3349;49.830;8.748;2023-09-07T05:21:40;8.50;;;7.63;;
6626;SDS011;3349;49.830;8.748;2023-09-07T05:24:08;10.43;;;7.07;;
6626;SDS011;3349;49.830;8.748;2023-09-07T05:26:34;8.77;;;7.32;;
6626;SDS011;3349;49.830;8.748;2023-09-07T05:29:01;8.00;;;7.25;;
6626;SDS011;3349;49.830;8.748;2023-09-07T05:31:28;10.88;;;7.75;;
6626;SDS011;3349;49.830;8.748;2023-09-07T05:33:54;11.65;;;7.32;;
6626;SDS011;3349;49.830;8.748;2023-09-07T05:36:21;12.13;;;6.72;;
6626;SDS011;3349;49.830;8.748;2023-09-07T05:38:48;11.50;;;7.07;;
6626;SDS011;3349;49.830;8.748;2023-09-07T05:41:16;9.52;;;7.30;;
6626;SDS011;3349;49.830;8.748;2023-09-07T05:43:42;9.48;;;7.07;;
6626;SDS011;3349;49.830;8.748;2023-09-07T05:46:09;7.40;;;6.70;;
6626;SDS011;3349;49.830;8.748;2023-09-07T05:48:36;10.30;;;7.35;;
6626;SDS011;3349;49.830;8.748;2023-09-07T05:51:02;10.30;;;7.95;;
6626;SDS011;3349;49.830;8.748;2023-09-07T05:53:29;10.25;;;7.60;;
6626;SDS011;3349;49.830;8.748;2023-09-07T05:55:56;8.93;;;7.80;;
6626;SDS011;3349;49.830;8.748;2023-09-07T05:58:24;10.13;;;7.93;;
6626;SDS011;3349;49.830;8.748;2023-09-07T06:00:51;8.40;;;7.57;;
6626;SDS011;3349;49.830;8.748;2023-09-07T06:03:18;8.60;;;7.07;;
6626;SDS011;3349;49.830;8.748;2023-09-07T06:05:45;11.60;;;7.20;;
6626;SDS011;3349;49.830;8.748;2023-09-07T06:08:11;9.50;;;7.22;;
6626;SDS011;3349;49.830;8.748;2023-09-07T06:10:38;7.20;;;6.50;;
6626;SDS011;3349;49.830;8.748;2023-09-07T06:13:05;10.85;;;7.20;;
6626;SDS011;3349;49.830;8.748;2023-09-07T06:15:33;7.93;;;7.13;;
6626;SDS011;3349;49.830;8.748;2023-09-07T06:18:00;8.10;;;6.60;;
6626;SDS011;3349;49.830;8.748;2023-09-07T06:20:26;8.75;;;6.43;;
6626;SDS011;3349;49.830;8.748;2023-09-07T06:22:53;7.32;;;6.57;;
6626;SDS011;3349;49.830;8.748;2023-09-07T06:25:20;7.68;;;6.97;;
6626;SDS011;3349;49.830;8.748;2023-09-07T06:27:47;7.63;;;6.93;;
6626;SDS011;3349;49.830;8.748;2023-09-07T06:30:13;7.70;;;7.00;;
6626;SDS011;3349;49.830;8.748;2023-09-07T06:32:41;11.00;;;7.88;;
6626;SDS011;3349;49.830;8.748;2023-09-07T06:35:08;8.13;;;6.75;;
6626;SDS011;3349;49.830;8.748;2023-09-07T06:37:36;6.97;;;6.28;;
6626;SDS011;3349;49.830;8.748;2023-09-07T06:40:06;7.53;;;6.55;;
6626;SDS011;3349;49.830;8.748;2023-09-07T06:42:33;8.18;;;7.25;;
6626;SDS011;3349;49.830;8.748;2023-09-07T06:45:00;7.60;;;6.80;;
6626;SDS011;3349;49.830;8.748;2023-09-07T06:47:27;6.85;;;6.15;;
6626;SDS011;3349;49.830;8.748;2023-09-07T06:49:55;8.55;;;6.70;;
6626;SDS011;3349;49.830;8.748;2023-09-07T06:52:22;7.72;;;6.78;;
6626;SDS011;3349;49.830;8.748;2023-09-07T06:54:50;11.38;;;6.90;;
6626;SDS011;3349;49.830;8.748;2023-09-07T06:57:17;7.95;;;7.15;;
6626;SDS011;3349;49.830;8.748;2023-09-07T06:59:44;7.45;;;6.65;;
6626;SDS011;3349;49.830;8.748;2023-09-07T07:02:10;8.15;;;7.00;;
6626;SDS011;3349;49.830;8.748;2023-09-07T07:04:37;7.82;;;7.05;;
6626;SDS011;3349;49.830;8.748;2023-09-07T07:07:05;8.10;;;7.30;;
6626;SDS011;3349;49.830;8.748;2023-09-07T07:09:32;8.13;;;7.25;;
6626;SDS011;3349;49.830;8.748;2023-09-07T07:11:59;8.60;;;7.20;;
6626;SDS011;3349;49.830;8.748;2023-09-07T07:14:26;7.68;;;6.88;;
6626;SDS011;3349;49.830;8.748;2023-09-07T07:16:53;8.13;;;7.25;;
6626;SDS011;3349;49.830;8.748;2023-09-07T07:19:20;8.32;;;7.53;;
6626;SDS011;3349;49.830;8.748;2023-09-07T07:21:47;8.18;;;7.35;;
6626;SDS011;3349;49.830;8.748;2023-09-07T07:24:15;8.68;;;7.30;;
6626;SDS011;3349;49.830;8.748;2023-09-07T07:26:42;8.25;;;7.43;;
6626;SDS011;3349;49.830;8.748;2023-09-07T07:29:09;9.63;;;7.30;;
6626;SDS011;3349;49.830;8.748;2023-09-07T07:31:36;9.13;;;6.95;;
6626;SDS011;3349;49.830;8.748;2023-09-07T07:34:03;7.55;;;6.82;;
6626;SDS011;3349;49.830;8.748;2023-09-07T07:36:30;8.70;;;6.68;;
6626;SDS011;3349;49.830;8.748;2023-09-07T07:38:56;8.40;;;7.03;;
6626;SDS011;3349;49.830;8.748;2023-09-07T07:41:24;7.68;;;6.93;;
6626;SDS011;3349;49.830;8.748;2023-09-07T07:43:51;9.80;;;6.93;;
6626;SDS011;3349;49.830;8.748;2023-09-07T07:46:18;7.35;;;6.65;;
6626;SDS011;3349;49.830;8.748;2023-09-07T07:48:45;8.32;;;7.03;;
6626;SDS011;3349;49.830;8.748;2023-09-07T07:51:11;7.95;;;7.25;;
6626;SDS011;3349;49.830;8.748;2023-09-07T07:53:38;8.27;;;6.90;;
6626;SDS011;3349;49.830;8.748;2023-09-07T07:56:05;7.93;;;7.00;;
6626;SDS011;3349;49.830;8.748;2023-09-07T07:58:33;8.20;;;6.20;;
6626;SDS011;3349;49.830;8.748;2023-09-07T08:00:59;7.63;;;6.35;;
6626;SDS011;3349;49.830;8.748;2023-09-07T08:03:26;8.80;;;6.95;;
6626;SDS011;3349;49.830;8.748;2023-09-07T08:05:53;7.47;;;6.55;;
6626;SDS011;3349;49.830;8.748;2023-09-07T08:08:20;7.68;;;6.43;;
6626;SDS011;3349;49.830;8.748;2023-09-07T08:10:46;6.72;;;6.03;;
6626;SDS011;3349;49.830;8.748;2023-09-07T08:13:13;7.03;;;6.38;;
6626;SDS011;3349;49.830;8.748;2023-09-07T08:15:41;7.13;;;6.45;;
6626;SDS011;3349;49.830;8.748;2023-09-07T08:18:08;7.55;;;6.25;;
6626;SDS011;3349;49.830;8.748;2023-09-07T08:20:35;7.13;;;6.45;;
6626;SDS011;3349;49.830;8.748;2023-09-07T08:23:03;6.93;;;6.28;;
6626;SDS011;3349;49.830;8.748;2023-09-07T08:25:32;9.25;;;6.55;;
6626;SDS011;3349;49.830;8.748;2023-09-07T08:27:59;9.02;;;6.63;;
6626;SDS011;3349;49.830;8.748;2023-09-07T08:30:25;8.20;;;6.53;;
6626;SDS011;3349;49.830;8.748;2023-09-07T08:32:53;7.03;;;6.25;;
6626;SDS011;3349;49.830;8.748;2023-09-07T08:35:20;6.75;;;6.15;;
6626;SDS011;3349;49.830;8.748;2023-09-07T08:37:51;7.10;;;5.97;;
6626;SDS011;3349;49.830;8.748;2023-09-07T08:40:18;6.93;;;6.28;;
6626;SDS011;3349;49.830;8.748;2023-09-07T08:42:46;8.18;;;6.50;;
6626;SDS011;3349;49.830;8.748;2023-09-07T08:45:13;6.80;;;6.20;;
6626;SDS011;3349;49.830;8.748;2023-09-07T08:47:45;8.80;;;6.25;;
6626;SDS011;3349;49.830;8.748;2023-09-07T08:50:14;6.95;;;6.25;;
6626;SDS011;3349;49.830;8.748;2023-09-07T08:52:43;7.80;;;6.00;;
6626;SDS011;3349;49.830;8.748;2023-09-07T08:55:11;7.75;;;5.95;;
6626;SDS011;3349;49.830;8.748;2023-09-07T08:57:38;6.60;;;6.00;;
6626;SDS011;3349;49.830;8.748;2023-09-07T09:00:06;7.15;;;6.18;;
6626;SDS011;3349;49.830;8.748;2023-09-07T09:02:39;6.63;;;5.90;;
6626;SDS011;3349;49.830;8.748;2023-09-07T09:05:05;6.65;;;6.05;;
6626;SDS011;3349;49.830;8.748;2023-09-07T09:07:36;6.32;;;5.70;;
6626;SDS011;3349;49.830;8.748;2023-09-07T09:10:04;7.25;;;6.55;;
6626;SDS011;3349;49.830;8.748;2023-09-07T09:12:31;6.90;;;6.28;;
6626;SDS011;3349;49.830;8.748;2023-09-07T09:14:58;6.65;;;6.05;;
6626;SDS011;3349;49.830;8.748;2023-09-07T09:17:25;6.15;;;5.60;;
6626;SDS011;3349;49.830;8.748;2023-09-07T09:19:52;6.90;;;5.93;;
6626;SDS011;3349;49.830;8.748;2023-09-07T09:22:19;6.22;;;5.72;;
6626;SDS011;3349;49.830;8.748;2023-09-07T09:24:48;6.45;;;5.85;;
6626;SDS011;3349;49.830;8.748;2023-09-07T09:27:15;7.30;;;6.05;;
6626;SDS011;3349;49.830;8.748;2023-09-07T09:29:42;6.30;;;5.80;;
6626;SDS011;3349;49.830;8.748;2023-09-07T09:32:09;7.05;;;5.63;;
6626;SDS011;3349;49.830;8.748;2023-09-07T09:34:39;6.13;;;5.45;;
6626;SDS011;3349;49.830;8.748;2023-09-07T09:37:12;6.90;;;6.32;;
6626;SDS011;3349;49.830;8.748;2023-09-07T09:39:40;6.03;;;5.53;;
6626;SDS011;3349;49.830;8.748;2023-09-07T09:42:09;6.80;;;6.30;;
6626;SDS011;3349;49.830;8.748;2023-09-07T09:44:38;6.97;;;6.30;;
6626;SDS011;3349;49.830;8.748;2023-09-07T09:47:06;6.63;;;6.03;;
6626;SDS011;3349;49.830;8.748;2023-09-07T09:49:34;6.85;;;6.15;;
6626;SDS011;3349;49.830;8.748;2023-09-07T09:52:01;7.03;;;6.53;;
6626;SDS011;3349;49.830;8.748;2023-09-07T09:54:29;6.60;;;6.07;;
6626;SDS011;3349;49.830;8.748;2023-09-07T09:56:59;6.75;;;6.15;;
6626;SDS011;3349;49.830;8.748;2023-09-07T09:59:28;7.10;;;6.40;;
6626;SDS011;3349;49.830;8.748;2023-09-07T10:01:54;6.90;;;6.32;;
6626;SDS011;3349;49.830;8.748;2023-09-07T10:04:22;7.28;;;6.68;;
6626;SDS011;3349;49.830;8.748;2023-09-07T10:06:50;6.75;;;6.25;;
6626;SDS011;3349;49.830;8.748;2023-09-07T10:09:19;6.30;;;5.70;;
6626;SDS011;3349;49.830;8.748;2023-09-07T10:11:50;7.47;;;6.75;;
6626;SDS011;3349;49.830;8.748;2023-09-07T10:14:18;7.25;;;6.65;;
6626;SDS011;3349;49.830;8.748;2023-09-07T10:16:46;7.18;;;6.50;;
6626;SDS011;3349;49.830;8.748;2023-09-07T10:19:14;6.60;;;6.00;;
6626;SDS011;3349;49.830;8.748;2023-09-07T10:21:41;8.23;;;5.88;;
6626;SDS011;3349;49.830;8.748;2023-09-07T10:24:08;6.80;;;6.30;;
6626;SDS011;3349;49.830;8.748;2023-09-07T10:26:35;6.63;;;6.03;;
6626;SDS011;3349;49.830;8.748;2023-09-07T10:29:02;6.25;;;5.78;;
6626;SDS011;3349;49.830;8.748;2023-09-07T10:31:30;6.43;;;5.93;;
6626;SDS011;3349;49.830;8.748;2023-09-07T10:34:08;6.70;;;6.20;;
6626;SDS011;3349;49.830;8.748;2023-09-07T10:36:37;6.75;;;6.25;;
6626;SDS011;3349;49.830;8.748;2023-09-07T10:39:03;6.60;;;6.00;;
6626;SDS011;3349;49.830;8.748;2023-09-07T10:41:40;6.70;;;6.20;;
6626;SDS011;3349;49.830;8.748;2023-09-07T10:44:08;7.00;;;6.50;;
6626;SDS011;3349;49.830;8.748;2023-09-07T10:46:37;6.30;;;5.80;;
6626;SDS011;3349;49.830;8.748;2023-09-07T10:49:06;7.05;;;5.90;;
6626;SDS011;3349;49.830;8.748;2023-09-07T10:51:40;6.20;;;5.80;;
6626;SDS011;3349;49.830;8.748;2023-09-07T10:54:15;6.57;;;5.97;;
6626;SDS011;3349;49.830;8.748;2023-09-07T10:56:43;6.70;;;6.10;;
6626;SDS011;3349;49.830;8.748;2023-09-07T10:59:11;6.55;;;5.85;;
6626;SDS011;3349;49.830;8.748;2023-09-07T11:01:38;6.30;;;5.80;;
6626;SDS011;3349;49.830;8.748;2023-09-07T11:04:05;5.78;;;5.40;;
6626;SDS011;3349;49.830;8.748;2023-09-07T11:06:35;6.53;;;5.63;;
6626;SDS011;3349;49.830;8.748;2023-09-07T11:09:02;5.90;;;5.50;;
6626;SDS011;3349;49.830;8.748;2023-09-07T11:11:30;6.53;;;6.13;;
6626;SDS011;3349;49.830;8.748;2023-09-07T11:13:58;7.10;;;6.60;;
6626;SDS011;3349;49.830;8.748;2023-09-07T11:16:25;7.22;;;6.28;;
6626;SDS011;3349;49.830;8.748;2023-09-07T11:18:52;7.05;;;6.47;;
6626;SDS011;3349;49.830;8.748;2023-09-07T11:21:19;7.20;;;6.60;;
6626;SDS011;3349;49.830;8.748;2023-09-07T11:23:47;7.97;;;7.00;;
6626;SDS011;3349;49.830;8.748;2023-09-07T11:26:14;7.25;;;6.75;;
6626;SDS011;3349;49.830;8.748;2023-09-07T11:28:44;6.93;;;6.35;;
6626;SDS011;3349;49.830;8.748;2023-09-07T11:31:11;7.35;;;6.80;;
6626;SDS011;3349;49.830;8.748;2023-09-07T11:33:38;7.43;;;6.75;;
6626;SDS011;3349;49.830;8.748;2023-09-07T11:36:07;7.68;;;7.18;;
6626;SDS011;3349;49.830;8.748;2023-09-07T11:38:36;6.63;;;6.22;;
6626;SDS011;3349;49.830;8.748;2023-09-07T11:41:05;7.10;;;6.60;;
6626;SDS011;3349;49.830;8.748;2023-09-07T11:43:31;7.65;;;7.15;;
6626;SDS011;3349;49.830;8.748;2023-09-07T11:45:58;6.65;;;6.18;;
6626;SDS011;3349;49.830;8.748;2023-09-07T11:48:25;7.38;;;6.88;;
6626;SDS011;3349;49.830;8.748;2023-09-07T11:50:53;7.18;;;6.68;;
6626;SDS011;3349;49.830;8.748;2023-09-07T11:53:20;7.97;;;7.47;;
6626;SDS011;3349;49.830;8.748;2023-09-07T11:55:46;7.40;;;6.82;;
6626;SDS011;3349;49.830;8.748;2023-09-07T11:58:14;7.25;;;6.85;;
6626;SDS011;3349;49.830;8.748;2023-09-07T12:00:41;7.68;;;7.18;;
6626;SDS011;3349;49.830;8.748;2023-09-07T12:03:08;7.03;;;6.32;;
6626;SDS011;3349;49.830;8.748;2023-09-07T12:05:35;8.07;;;7.47;;
6626;SDS011;3349;49.830;8.748;2023-09-07T12:08:02;8.50;;;7.32;;
6626;SDS011;3349;49.830;8.748;2023-09-07T12:10:29;8.18;;;7.47;;
6626;SDS011;3349;49.830;8.748;2023-09-07T12:12:56;8.23;;;7.53;;
6626;SDS011;3349;49.830;8.748;2023-09-07T12:15:24;7.85;;;7.35;;
6626;SDS011;3349;49.830;8.748;2023-09-07T12:17:51;7.20;;;6.47;;
6626;SDS011;3349;49.830;8.748;2023-09-07T12:20:19;7.35;;;6.75;;
6626;SDS011;3349;49.830;8.748;2023-09-07T12:22:46;7.68;;;7.07;;
6626;SDS011;3349;49.830;8.748;2023-09-07T12:25:14;8.25;;;6.20;;
6626;SDS011;3349;49.830;8.748;2023-09-07T12:27:41;7.13;;;6.45;;
6626;SDS011;3349;49.830;8.748;2023-09-07T12:30:09;6.70;;;6.20;;
6626;SDS011;3349;49.830;8.748;2023-09-07T12:32:39;7.82;;;6.20;;
6626;SDS011;3349;49.830;8.748;2023-09-07T12:35:06;7.15;;;6.65;;
6626;SDS011;3349;49.830;8.748;2023-09-07T12:37:33;6.47;;;5.93;;
6626;SDS011;3349;49.830;8.748;2023-09-07T12:40:01;7.00;;;6.50;;
6626;SDS011;3349;49.830;8.748;2023-09-07T12:42:30;6.35;;;5.75;;
6626;SDS011;3349;49.830;8.748;2023-09-07T12:44:56;7.22;;;6.15;;
6626;SDS011;3349;49.830;8.748;2023-09-07T12:47:23;7.10;;;6.00;;
6626;SDS011;3349;49.830;8.748;2023-09-07T12:49:51;7.20;;;6.43;;
6626;SDS011;3349;49.830;8.748;2023-09-07T12:52:18;6.32;;;5.45;;
6626;SDS011;3349;49.830;8.748;2023-09-07T12:54:45;6.50;;;5.95;;
6626;SDS011;3349;49.830;8.748;2023-09-07T12:57:11;6.22;;;5.72;;
6626;SDS011;3349;49.830;8.748;2023-09-07T12:59:38;7.07;;;5.97;;
6626;SDS011;3349;49.830;8.748;2023-09-07T13:02:04;5.88;;;5.35;;
6626;SDS011;3349;49.830;8.748;2023-09-07T13:04:31;5.88;;;5.38;;
6626;SDS011;3349;49.830;8.748;2023-09-07T13:06:59;5.45;;;4.95;;
6626;SDS011;3349;49.830;8.748;2023-09-07T13:09:27;5.90;;;5.40;;
6626;SDS011;3349;49.830;8.748;2023-09-07T13:11:53;6.32;;;5.20;;
6626;SDS011;3349;49.830;8.748;2023-09-07T13:14:20;5.50;;;5.07;;
6626;SDS011;3349;49.830;8.748;2023-09-07T13:16:47;6.43;;;5.88;;
6626;SDS011;3349;49.830;8.748;2023-09-07T13:19:15;6.18;;;5.57;;
6626;SDS011;3349;49.830;8.748;2023-09-07T13:21:42;6.13;;;5.53;;
6626;SDS011;3349;49.830;8.748;2023-09-07T13:24:10;6.13;;;5.63;;
6626;SDS011;3349;49.830;8.748;2023-09-07T13:26:37;5.63;;;5.13;;
6626;SDS011;3349;49.830;8.748;2023-09-07T13:29:06;7.03;;;5.40;;
6626;SDS011;3349;49.830;8.748;2023-09-07T13:31:32;8.10;;;5.10;;
6626;SDS011;3349;49.830;8.748;2023-09-07T13:33:59;6.05;;;5.38;;
6626;SDS011;3349;49.830;8.748;2023-09-07T13:36:26;5.97;;;4.88;;
6626;SDS011;3349;49.830;8.748;2023-09-07T13:38:52;6.13;;;5.13;;
6626;SDS011;3349;49.830;8.748;2023-09-07T13:41:23;6.15;;;5.60;;
6626;SDS011;3349;49.830;8.748;2023-09-07T13:43:49;8.27;;;4.95;;
6626;SDS011;3349;49.830;8.748;2023-09-07T13:46:16;5.53;;;5.03;;
6626;SDS011;3349;49.830;8.748;2023-09-07T13:48:43;6.65;;;5.80;;
6626;SDS011;3349;49.830;8.748;2023-09-07T13:51:10;5.90;;;5.30;;
6626;SDS011;3349;49.830;8.748;2023-09-07T13:53:37;6.07;;;5.20;;
6626;SDS011;3349;49.830;8.748;2023-09-07T13:56:03;6.47;;;5.53;;
6626;SDS011;3349;49.830;8.748;2023-09-07T13:58:31;9.15;;;5.47;;
6626;SDS011;3349;49.830;8.748;2023-09-07T14:00:58;7.32;;;5.43;;
6626;SDS011;3349;49.830;8.748;2023-09-07T14:03:24;6.03;;;5.45;;
6626;SDS011;3349;49.830;8.748;2023-09-07T14:05:51;5.82;;;5.25;;
6626;SDS011;3349;49.830;8.748;2023-09-07T14:08:18;5.72;;;5.22;;
6626;SDS011;3349;49.830;8.748;2023-09-07T14:10:48;6.00;;;5.40;;
6626;SDS011;3349;49.830;8.748;2023-09-07T14:13:15;5.50;;;5.10;;
6626;SDS011;3349;49.830;8.748;2023-09-07T14:15:43;5.93;;;4.80;;
6626;SDS011;3349;49.830;8.748;2023-09-07T14:18:09;7.20;;;5.47;;
6626;SDS011;3349;49.830;8.748;2023-09-07T14:20:36;6.20;;;5.40;;
6626;SDS011;3349;49.830;8.748;2023-09-07T14:23:03;5.90;;;5.07;;
6626;SDS011;3349;49.830;8.748;2023-09-07T14:25:30;5.47;;;5.03;;
6626;SDS011;3349;49.830;8.748;2023-09-07T14:27:57;7.30;;;5.20;;
6626;SDS011;3349;49.830;8.748;2023-09-07T14:30:23;5.65;;;5.15;;
6626;SDS011;3349;49.830;8.748;2023-09-07T14:32:52;5.65;;;5.00;;
6626;SDS011;3349;49.830;8.748;2023-09-07T14:35:19;6.25;;;5.22;;
6626;SDS011;3349;49.830;8.748;2023-09-07T14:37:45;5.85;;;5.22;;
6626;SDS011;3349;49.830;8.748;2023-09-07T14:40:12;5.80;;;5.15;;
6626;SDS011;3349;49.830;8.748;2023-09-07T14:42:39;6.05;;;5.47;;
6626;SDS011;3349;49.830;8.748;2023-09-07T14:45:06;6.53;;;5.25;;
6626;SDS011;3349;49.830;8.748;2023-09-07T14:47:33;8.80;;;5.72;;
6626;SDS011;3349;49.830;8.748;2023-09-07T14:50:01;5.97;;;4.60;;
6626;SDS011;3349;49.830;8.748;2023-09-07T14:52:28;7.78;;;4.55;;
6626;SDS011;3349;49.830;8.748;2023-09-07T14:54:56;5.90;;;5.40;;
6626;SDS011;3349;49.830;8.748;2023-09-07T14:57:22;4.85;;;4.45;;
6626;SDS011;3349;49.830;8.748;2023-09-07T14:59:49;5.47;;;4.97;;
6626;SDS011;3349;49.830;8.748;2023-09-07T15:02:16;6.13;;;5.53;;
6626;SDS011;3349;49.830;8.748;2023-09-07T15:04:42;5.78;;;5.20;;
6626;SDS011;3349;49.830;8.748;2023-09-07T15:07:11;5.68;;;4.90;;
6626;SDS011;3349;49.830;8.748;2023-09-07T15:09:37;5.75;;;5.25;;
6626;SDS011;3349;49.830;8.748;2023-09-07T15:12:04;7.43;;;5.07;;
6626;SDS011;3349;49.830;8.748;2023-09-07T15:14:31;8.30;;;5.20;;
6626;SDS011;3349;49.830;8.748;2023-09-07T15:16:58;5.88;;;4.72;;